createdAt,value
2019-01-27T00:00:34.589Z,7.10
2019-01-27T00:01:34.591Z,6.90
2019-01-27T00:02:34.591Z,7.20
2019-01-27T00:03:34.558Z,7.30
2019-01-27T00:04:34.544Z,7.30
2019-01-27T00:05:34.539Z,7.10
2019-01-27T00:06:34.523Z,7.00
2019-01-27T00:07:34.538Z,6.50
2019-01-27T00:08:34.505Z,6.60
2019-01-27T00:09:34.487Z,7.20
2019-01-27T00:10:34.479Z,6.80
2019-01-27T00:11:34.467Z,6.80
2019-01-27T00:12:34.473Z,6.70
2019-01-27T00:13:34.473Z,6.80
2019-01-27T00:14:34.439Z,6.70
2019-01-27T00:15:34.465Z,7.00
2019-01-27T00:16:34.411Z,6.70
2019-01-27T00:17:34.420Z,6.60
2019-01-27T00:18:34.392Z,6.90
2019-01-27T00:19:34.383Z,6.60
2019-01-27T00:20:34.372Z,7.40
2019-01-27T00:21:34.376Z,6.60
2019-01-27T00:22:34.384Z,7.20
2019-01-27T00:23:34.363Z,6.00
2019-01-27T00:24:34.335Z,6.30
2019-01-27T00:25:34.318Z,6.20
2019-01-27T00:26:34.318Z,6.30
2019-01-27T00:27:34.322Z,7.10
2019-01-27T00:28:34.287Z,6.50
2019-01-27T00:29:34.276Z,6.60
2019-01-27T00:30:34.268Z,6.90
2019-01-27T00:31:34.268Z,6.90
2019-01-27T00:32:34.269Z,6.60
2019-01-27T00:33:34.249Z,7.00
2019-01-27T00:34:34.227Z,6.60
2019-01-27T00:35:34.209Z,6.50
2019-01-27T00:36:34.194Z,6.20
2019-01-27T00:37:34.184Z,6.40
2019-01-27T00:38:34.190Z,6.80
2019-01-27T00:39:34.170Z,6.80
2019-01-27T00:40:34.152Z,6.50
2019-01-27T00:41:34.141Z,6.50
2019-01-27T00:42:34.136Z,6.30
2019-01-27T00:43:34.135Z,6.30
2019-01-27T00:44:34.108Z,6.10
2019-01-27T00:45:34.099Z,6.50
2019-01-27T00:46:34.087Z,6.20
2019-01-27T00:47:34.080Z,6.80
2019-01-27T00:48:34.106Z,6.40
2019-01-27T00:49:34.056Z,6.60
2019-01-27T00:50:34.044Z,5.80
2019-01-27T00:51:34.038Z,6.20
2019-01-27T00:52:34.021Z,6.10
2019-01-27T00:53:34.010Z,6.40
2019-01-27T00:54:34.021Z,5.90
2019-01-27T00:55:34.010Z,6.00
2019-01-27T00:56:33.976Z,6.10
2019-01-27T00:57:33.974Z,6.00
2019-01-27T00:58:33.956Z,6.10
2019-01-27T00:59:33.959Z,6.00
2019-01-27T01:00:33.937Z,5.80
2019-01-27T01:01:33.932Z,6.10
2019-01-27T01:02:33.915Z,5.50
2019-01-27T01:03:33.906Z,5.20
2019-01-27T01:04:33.892Z,5.60
2019-01-27T01:05:33.898Z,5.70
2019-01-27T01:06:33.872Z,5.70
2019-01-27T01:07:33.857Z,5.80
2019-01-27T01:08:33.855Z,5.40
2019-01-27T01:09:33.836Z,5.60
2019-01-27T01:10:33.860Z,5.90
2019-01-27T01:11:33.815Z,5.30
2019-01-27T01:12:33.812Z,5.40
2019-01-27T01:13:33.795Z,5.40
2019-01-27T01:14:33.781Z,5.40
2019-01-27T01:15:33.791Z,5.50
2019-01-27T01:16:33.781Z,5.20
2019-01-27T01:17:33.755Z,5.50
2019-01-27T01:18:33.750Z,5.50
2019-01-27T01:19:33.727Z,5.70
2019-01-27T01:20:33.745Z,5.00
2019-01-27T01:21:33.709Z,5.70
2019-01-27T01:22:33.700Z,5.20
2019-01-27T01:23:33.683Z,5.70
2019-01-27T01:24:33.720Z,5.60
2019-01-27T01:25:33.686Z,5.70
2019-01-27T01:26:33.667Z,5.70
2019-01-27T01:27:33.642Z,5.20
2019-01-27T01:28:33.627Z,5.20
2019-01-27T01:29:33.633Z,5.40
2019-01-27T01:30:33.653Z,5.30
2019-01-27T01:31:33.600Z,5.60
2019-01-27T01:32:33.589Z,5.20
2019-01-27T01:33:33.574Z,5.50
2019-01-27T01:34:33.565Z,5.60
2019-01-27T01:35:33.588Z,5.30
2019-01-27T01:36:33.544Z,5.30
2019-01-27T01:37:33.536Z,5.40
2019-01-27T01:38:33.522Z,5.30
2019-01-27T01:39:33.509Z,5.10
2019-01-27T01:40:33.527Z,5.50
2019-01-27T01:41:33.496Z,5.10
2019-01-27T01:42:33.480Z,5.30
2019-01-27T01:43:33.467Z,5.00
2019-01-27T01:44:33.450Z,5.40
2019-01-27T01:45:33.475Z,5.10
2019-01-27T01:46:33.446Z,5.00
2019-01-27T01:47:33.417Z,5.30
2019-01-27T01:48:33.433Z,5.10
2019-01-27T01:49:33.398Z,5.50
2019-01-27T01:50:33.392Z,5.20
2019-01-27T01:51:33.391Z,5.40
2019-01-27T01:52:33.380Z,4.90
2019-01-27T01:53:33.352Z,5.30
2019-01-27T01:54:33.349Z,5.00
2019-01-27T01:55:33.348Z,4.90
2019-01-27T01:56:33.349Z,4.60
2019-01-27T01:57:33.312Z,5.10
2019-01-27T01:58:33.303Z,4.80
2019-01-27T01:59:33.282Z,5.10
2019-01-27T02:00:33.274Z,5.20
2019-01-27T02:01:33.282Z,5.00
2019-01-27T02:02:33.279Z,5.20
2019-01-27T02:03:33.246Z,4.90
2019-01-27T02:04:33.230Z,4.80
2019-01-27T02:05:33.217Z,4.60
2019-01-27T02:06:33.234Z,4.70
2019-01-27T02:07:33.219Z,5.00
2019-01-27T02:08:33.187Z,5.10
2019-01-27T02:09:33.173Z,4.60
2019-01-27T02:10:33.163Z,4.70
2019-01-27T02:11:33.153Z,4.80
2019-01-27T02:12:33.157Z,5.10
2019-01-27T02:13:33.135Z,4.60
2019-01-27T02:14:33.122Z,5.10
2019-01-27T02:15:33.107Z,4.50
2019-01-27T02:16:33.098Z,5.10
2019-01-27T02:17:33.107Z,4.10
2019-01-27T02:18:33.082Z,4.80
2019-01-27T02:19:33.068Z,4.80
2019-01-27T02:20:33.054Z,5.00
2019-01-27T02:21:33.040Z,4.80
2019-01-27T02:22:33.046Z,4.60
2019-01-27T02:23:33.022Z,4.50
2019-01-27T02:24:33.006Z,4.60
2019-01-27T02:25:32.997Z,4.50
2019-01-27T02:26:32.992Z,4.40
2019-01-27T02:27:32.994Z,4.70
2019-01-27T02:28:32.969Z,4.30
2019-01-27T02:29:32.963Z,4.20
2019-01-27T02:30:32.956Z,4.20
2019-01-27T02:31:32.932Z,4.40
2019-01-27T02:32:32.925Z,4.30
2019-01-27T02:33:32.972Z,4.80
2019-01-27T02:34:32.902Z,4.00
2019-01-27T02:35:32.896Z,4.20
2019-01-27T02:36:32.887Z,4.10
2019-01-27T02:37:32.867Z,3.90
2019-01-27T02:38:32.877Z,4.10
2019-01-27T02:39:32.847Z,4.00
2019-01-27T02:40:32.838Z,4.00
2019-01-27T02:41:32.826Z,4.20
2019-01-27T02:42:32.810Z,4.10
2019-01-27T02:43:32.818Z,4.00
2019-01-27T02:44:32.788Z,3.80
2019-01-27T02:45:32.779Z,4.10
2019-01-27T02:46:32.772Z,4.10
2019-01-27T02:47:32.762Z,3.90
2019-01-27T02:48:32.763Z,4.00
2019-01-27T02:49:32.739Z,4.10
2019-01-27T02:50:32.726Z,3.80
2019-01-27T02:51:32.717Z,4.00
2019-01-27T02:52:32.704Z,3.70
2019-01-27T02:53:32.709Z,3.90
2019-01-27T02:54:32.683Z,3.60
2019-01-27T02:55:32.669Z,3.70
2019-01-27T02:56:32.658Z,3.90
2019-01-27T02:57:32.658Z,4.00
2019-01-27T02:58:32.688Z,3.80
2019-01-27T02:59:32.626Z,3.40
2019-01-27T03:00:32.614Z,3.70
2019-01-27T03:01:32.610Z,4.10
2019-01-27T03:02:32.597Z,3.50
2019-01-27T03:03:32.596Z,3.40
2019-01-27T03:04:32.614Z,3.70
2019-01-27T03:05:32.563Z,3.70
2019-01-27T03:06:32.549Z,3.40
2019-01-27T03:07:32.540Z,3.40
2019-01-27T03:08:32.555Z,3.40
2019-01-27T03:09:32.536Z,3.90
2019-01-27T03:10:32.514Z,3.60
2019-01-27T03:11:32.507Z,3.50
2019-01-27T03:12:32.481Z,3.40
2019-01-27T03:13:32.473Z,3.30
2019-01-27T03:14:32.489Z,3.50
2019-01-27T03:15:32.452Z,3.20
2019-01-27T03:16:32.438Z,3.10
2019-01-27T03:17:32.433Z,3.40
2019-01-27T03:18:32.412Z,3.40
2019-01-27T03:19:32.427Z,3.50
2019-01-27T03:20:32.411Z,3.60
2019-01-27T03:21:32.396Z,3.60
2019-01-27T03:22:32.383Z,3.10
2019-01-27T03:23:32.361Z,3.70
2019-01-27T03:24:32.370Z,3.60
2019-01-27T03:25:32.338Z,3.70
2019-01-27T03:26:32.345Z,4.10
2019-01-27T03:27:32.318Z,3.40
2019-01-27T03:28:32.304Z,3.10
2019-01-27T03:29:32.294Z,3.30
2019-01-27T03:30:32.285Z,2.90
2019-01-27T03:31:32.297Z,3.50
2019-01-27T03:32:32.275Z,3.30
2019-01-27T03:33:32.256Z,3.10
2019-01-27T03:34:32.241Z,3.30
2019-01-27T03:35:32.244Z,3.50
2019-01-27T03:36:32.236Z,3.10
2019-01-27T03:37:32.204Z,3.40
2019-01-27T03:38:32.196Z,3.00
2019-01-27T03:39:32.190Z,3.30
2019-01-27T03:40:32.168Z,3.30
2019-01-27T03:41:32.186Z,3.30
2019-01-27T03:42:32.154Z,3.20
2019-01-27T03:43:32.137Z,3.30
2019-01-27T03:44:32.134Z,3.00
2019-01-27T03:45:32.113Z,3.40
2019-01-27T03:46:32.135Z,3.20
2019-01-27T03:47:32.099Z,3.40
2019-01-27T03:48:32.077Z,3.40
2019-01-27T03:49:32.078Z,3.00
2019-01-27T03:50:32.055Z,3.10
2019-01-27T03:51:32.047Z,3.40
2019-01-27T03:52:32.054Z,3.30
2019-01-27T03:53:32.028Z,3.50
2019-01-27T03:54:32.016Z,3.20
2019-01-27T03:55:32.013Z,3.50
2019-01-27T03:56:31.992Z,3.30
2019-01-27T03:57:31.997Z,3.20
2019-01-27T03:58:31.978Z,3.30
2019-01-27T03:59:31.957Z,3.40
2019-01-27T04:00:31.965Z,3.30
2019-01-27T04:01:31.963Z,3.10
2019-01-27T04:02:31.949Z,3.10
2019-01-27T04:03:31.915Z,3.20
2019-01-27T04:04:31.917Z,3.50
2019-01-27T04:05:31.896Z,3.10
2019-01-27T04:06:31.886Z,3.30
2019-01-27T04:07:31.906Z,3.60
2019-01-27T04:08:31.871Z,3.00
2019-01-27T04:09:31.852Z,3.40
2019-01-27T04:10:31.838Z,3.20
2019-01-27T04:11:31.827Z,3.30
2019-01-27T04:12:31.814Z,2.70
2019-01-27T04:13:31.822Z,3.00
2019-01-27T04:14:31.794Z,2.90
2019-01-27T04:15:31.783Z,3.10
2019-01-27T04:16:31.775Z,3.30
2019-01-27T04:17:31.760Z,3.30
2019-01-27T04:18:31.824Z,3.00
2019-01-27T04:19:31.766Z,3.30
2019-01-27T04:20:31.740Z,3.40
2019-01-27T04:21:31.735Z,3.40
2019-01-27T04:22:31.707Z,2.80
2019-01-27T04:23:31.710Z,2.70
2019-01-27T04:24:31.683Z,3.10
2019-01-27T04:25:31.680Z,3.00
2019-01-27T04:26:31.664Z,3.20
2019-01-27T04:27:31.664Z,3.00
2019-01-27T04:28:31.656Z,3.20
2019-01-27T04:29:31.635Z,3.10
2019-01-27T04:30:31.625Z,2.90
2019-01-27T04:31:31.612Z,3.10
2019-01-27T04:32:31.601Z,3.10
2019-01-27T04:33:31.600Z,3.10
2019-01-27T04:34:31.580Z,2.80
2019-01-27T04:35:31.561Z,2.80
2019-01-27T04:36:31.550Z,3.00
2019-01-27T04:37:31.544Z,3.00
2019-01-27T04:38:31.542Z,2.70
2019-01-27T04:39:31.517Z,3.00
2019-01-27T04:40:31.504Z,3.20
2019-01-27T04:41:31.492Z,2.80
2019-01-27T04:42:31.493Z,3.00
2019-01-27T04:43:31.487Z,3.50
2019-01-27T04:44:31.479Z,3.60
2019-01-27T04:45:31.454Z,2.80
2019-01-27T04:46:31.439Z,3.00
2019-01-27T04:47:31.428Z,3.10
2019-01-27T04:48:31.424Z,3.10
2019-01-27T04:49:31.436Z,3.00
2019-01-27T04:50:31.396Z,3.10
2019-01-27T04:51:31.381Z,2.90
2019-01-27T04:52:31.371Z,3.10
2019-01-27T04:53:31.358Z,3.00
2019-01-27T04:54:31.366Z,3.10
2019-01-27T04:55:31.344Z,3.10
2019-01-27T04:56:31.329Z,3.20
2019-01-27T04:57:31.320Z,3.30
2019-01-27T04:58:31.338Z,2.90
2019-01-27T04:59:31.297Z,3.20
2019-01-27T05:00:31.290Z,2.70
2019-01-27T05:01:31.291Z,2.90
2019-01-27T05:02:31.272Z,3.10
2019-01-27T05:03:31.274Z,2.80
2019-01-27T05:04:31.261Z,3.20
2019-01-27T05:05:31.230Z,3.20
2019-01-27T05:06:31.220Z,2.80
2019-01-27T05:07:31.211Z,2.90
2019-01-27T05:08:31.198Z,3.10
2019-01-27T05:09:31.217Z,3.10
2019-01-27T05:10:31.214Z,3.30
2019-01-27T05:11:31.176Z,3.00
2019-01-27T05:12:31.157Z,3.00
2019-01-27T05:13:31.150Z,3.10
2019-01-27T05:14:31.185Z,2.80
2019-01-27T05:15:31.142Z,3.10
2019-01-27T05:16:31.151Z,3.20
2019-01-27T05:17:31.102Z,2.80
2019-01-27T05:18:31.098Z,3.10
2019-01-27T05:19:31.078Z,3.00
2019-01-27T05:20:31.083Z,3.10
2019-01-27T05:21:31.060Z,3.00
2019-01-27T05:22:31.048Z,2.80
2019-01-27T05:23:31.037Z,2.80
2019-01-27T05:24:31.034Z,3.10
2019-01-27T05:25:31.042Z,2.80
2019-01-27T05:26:31.002Z,2.80
2019-01-27T05:27:30.998Z,2.90
2019-01-27T05:28:30.983Z,2.70
2019-01-27T05:29:30.968Z,2.80
2019-01-27T05:30:31.012Z,2.90
2019-01-27T05:31:30.952Z,3.00
2019-01-27T05:32:30.934Z,2.80
2019-01-27T05:33:30.930Z,3.10
2019-01-27T05:34:30.911Z,3.10
2019-01-27T05:35:30.931Z,3.10
2019-01-27T05:36:30.906Z,2.70
2019-01-27T05:37:30.879Z,2.90
2019-01-27T05:38:30.871Z,2.90
2019-01-27T05:39:30.854Z,3.10
2019-01-27T05:40:30.899Z,2.90
2019-01-27T05:41:30.832Z,2.90
2019-01-27T05:42:30.824Z,2.80
2019-01-27T05:43:30.812Z,2.90
2019-01-27T05:44:30.801Z,2.80
2019-01-27T05:45:30.795Z,2.80
2019-01-27T05:46:30.814Z,2.80
2019-01-27T05:47:30.770Z,3.20
2019-01-27T05:48:30.755Z,2.90
2019-01-27T05:49:30.749Z,2.90
2019-01-27T05:50:30.835Z,3.10
2019-01-27T05:51:30.754Z,2.60
2019-01-27T05:52:30.719Z,2.80
2019-01-27T05:53:30.701Z,3.10
2019-01-27T05:54:30.688Z,2.80
2019-01-27T05:55:30.676Z,2.90
2019-01-27T05:56:30.696Z,2.50
2019-01-27T05:57:30.661Z,2.70
2019-01-27T05:58:30.644Z,2.60
2019-01-27T05:59:30.631Z,2.90
2019-01-27T06:00:30.623Z,2.50
2019-01-27T06:01:30.610Z,2.60
2019-01-27T06:02:30.619Z,2.50
2019-01-27T06:03:30.594Z,2.90
2019-01-27T06:04:30.581Z,2.90
2019-01-27T06:05:30.568Z,2.40
2019-01-27T06:06:30.579Z,2.80
2019-01-27T06:07:30.558Z,2.30
2019-01-27T06:08:30.536Z,2.50
2019-01-27T06:09:30.523Z,2.30
2019-01-27T06:10:30.528Z,2.50
2019-01-27T06:11:30.504Z,2.60
2019-01-27T06:12:30.504Z,2.10
2019-01-27T06:13:30.501Z,2.40
2019-01-27T06:14:30.482Z,2.50
2019-01-27T06:15:30.490Z,2.30
2019-01-27T06:16:30.469Z,2.30
2019-01-27T06:17:30.450Z,2.50
2019-01-27T06:18:30.425Z,2.10
2019-01-27T06:19:30.419Z,2.10
2019-01-27T06:20:30.409Z,2.40
2019-01-27T06:21:30.388Z,2.20
2019-01-27T06:22:30.412Z,2.60
2019-01-27T06:23:30.368Z,2.50
2019-01-27T06:24:30.362Z,2.00
2019-01-27T06:25:30.359Z,2.10
2019-01-27T06:26:30.341Z,2.10
2019-01-27T06:27:30.354Z,2.20
2019-01-27T06:28:30.312Z,2.00
2019-01-27T06:29:30.302Z,2.10
2019-01-27T06:30:30.295Z,2.20
2019-01-27T06:31:30.279Z,2.30
2019-01-27T06:32:30.265Z,2.10
2019-01-27T06:33:30.278Z,2.00
2019-01-27T06:34:30.244Z,1.90
2019-01-27T06:35:30.240Z,2.10
2019-01-27T06:36:30.224Z,2.10
2019-01-27T06:37:30.226Z,2.00
2019-01-27T06:38:30.229Z,2.20
2019-01-27T06:39:30.190Z,1.80
2019-01-27T06:40:30.180Z,2.00
2019-01-27T06:41:30.170Z,1.90
2019-01-27T06:42:30.174Z,2.20
2019-01-27T06:43:30.165Z,2.10
2019-01-27T06:44:30.143Z,1.90
2019-01-27T06:45:30.125Z,2.50
2019-01-27T06:46:30.119Z,2.10
2019-01-27T06:47:30.102Z,2.00
2019-01-27T06:48:30.111Z,2.00
2019-01-27T06:49:30.083Z,1.90
2019-01-27T06:50:30.074Z,1.80
2019-01-27T06:51:30.058Z,2.00
2019-01-27T06:52:30.045Z,1.70
2019-01-27T06:53:30.055Z,1.70
2019-01-27T06:54:30.024Z,1.80
2019-01-27T06:55:30.012Z,1.50
2019-01-27T06:56:30.013Z,1.70
2019-01-27T06:57:29.991Z,1.80
2019-01-27T06:58:30.018Z,1.80
2019-01-27T06:59:29.983Z,1.80
2019-01-27T07:00:29.960Z,1.90
2019-01-27T07:01:29.944Z,1.70
2019-01-27T07:02:29.937Z,1.70
2019-01-27T07:03:29.937Z,1.80
2019-01-27T07:04:29.934Z,1.90
2019-01-27T07:05:29.902Z,1.90
2019-01-27T07:06:29.887Z,2.00
2019-01-27T07:07:29.876Z,1.70
2019-01-27T07:08:29.864Z,1.70
2019-01-27T07:09:29.877Z,1.80
2019-01-27T07:10:29.844Z,1.60
2019-01-27T07:11:29.839Z,1.60
2019-01-27T07:12:29.825Z,1.80
2019-01-27T07:13:29.810Z,1.60
2019-01-27T07:14:29.818Z,1.80
2019-01-27T07:15:29.796Z,1.60
2019-01-27T07:16:29.783Z,1.60
2019-01-27T07:17:29.762Z,1.40
2019-01-27T07:18:29.767Z,1.60
2019-01-27T07:19:29.789Z,1.70
2019-01-27T07:20:29.737Z,1.60
2019-01-27T07:21:29.727Z,1.40
2019-01-27T07:22:29.714Z,1.70
2019-01-27T07:23:29.694Z,2.00
2019-01-27T07:24:29.946Z,1.60
2019-01-27T07:25:29.688Z,1.60
2019-01-27T07:26:29.663Z,1.60
2019-01-27T07:27:29.663Z,1.60
2019-01-27T07:28:29.640Z,1.70
2019-01-27T07:29:29.645Z,1.70
2019-01-27T07:30:29.648Z,1.50
2019-01-27T07:31:29.606Z,1.60
2019-01-27T07:32:29.595Z,1.60
2019-01-27T07:33:29.582Z,1.90
2019-01-27T07:34:29.588Z,1.70
2019-01-27T07:35:29.579Z,2.30
2019-01-27T07:36:29.551Z,1.70
2019-01-27T07:37:29.541Z,1.70
2019-01-27T07:38:29.527Z,1.60
2019-01-27T07:39:29.516Z,1.80
2019-01-27T07:40:29.532Z,1.50
2019-01-27T07:41:29.493Z,2.00
2019-01-27T07:42:29.485Z,1.60
2019-01-27T07:43:29.473Z,1.80
2019-01-27T07:44:29.460Z,1.70
2019-01-27T07:45:29.469Z,1.60
2019-01-27T07:46:29.476Z,1.90
2019-01-27T07:47:29.440Z,1.90
2019-01-27T07:48:29.416Z,1.50
2019-01-27T07:49:29.417Z,1.60
2019-01-27T07:50:29.390Z,1.70
2019-01-27T07:51:29.416Z,1.90
2019-01-27T07:52:29.379Z,1.80
2019-01-27T07:53:29.358Z,1.80
2019-01-27T07:54:29.363Z,1.90
2019-01-27T07:55:29.338Z,1.60
2019-01-27T07:56:29.348Z,1.60
2019-01-27T07:57:29.322Z,1.80
2019-01-27T07:58:29.301Z,1.30
2019-01-27T07:59:29.298Z,1.80
2019-01-27T08:00:29.312Z,1.60
2019-01-27T08:01:29.267Z,1.50
2019-01-27T08:02:29.337Z,1.60
2019-01-27T08:03:29.244Z,1.70
2019-01-27T08:04:29.244Z,1.50
2019-01-27T08:05:29.239Z,1.70
2019-01-27T08:06:29.223Z,1.60
2019-01-27T08:07:29.247Z,1.60
2019-01-27T08:08:29.201Z,1.70
2019-01-27T08:09:29.178Z,2.30
2019-01-27T08:10:29.172Z,1.60
2019-01-27T08:11:29.180Z,1.70
2019-01-27T08:12:29.144Z,1.70
2019-01-27T08:13:29.132Z,1.30
2019-01-27T08:14:29.119Z,1.40
2019-01-27T08:15:29.109Z,1.60
2019-01-27T08:16:29.122Z,1.50
2019-01-27T08:17:29.116Z,1.70
2019-01-27T08:18:29.093Z,1.50
2019-01-27T08:19:29.066Z,1.50
2019-01-27T08:20:29.057Z,1.60
2019-01-27T08:21:29.045Z,2.10
2019-01-27T08:22:29.061Z,1.80
2019-01-27T08:23:29.062Z,1.60
2019-01-27T08:24:29.008Z,1.60
2019-01-27T08:25:29.005Z,1.60
2019-01-27T08:26:29.006Z,1.60
2019-01-27T08:27:29.003Z,1.40
2019-01-27T08:28:28.995Z,1.50
2019-01-27T08:29:28.951Z,1.50
2019-01-27T08:30:28.954Z,1.50
2019-01-27T08:31:28.933Z,1.30
2019-01-27T08:32:28.936Z,1.90
2019-01-27T08:33:28.943Z,1.50
2019-01-27T08:34:28.912Z,1.40
2019-01-27T08:35:28.898Z,1.40
2019-01-27T08:36:28.873Z,1.30
2019-01-27T08:37:28.888Z,1.30
2019-01-27T08:38:28.882Z,1.20
2019-01-27T08:39:28.848Z,1.60
2019-01-27T08:40:28.841Z,1.40
2019-01-27T08:41:28.827Z,1.50
2019-01-27T08:42:28.807Z,1.30
2019-01-27T08:43:28.813Z,1.40
2019-01-27T08:44:28.787Z,1.40
2019-01-27T08:45:28.802Z,1.50
2019-01-27T08:46:28.786Z,1.50
2019-01-27T08:47:28.754Z,1.40
2019-01-27T08:48:28.759Z,1.60
2019-01-27T08:49:28.733Z,1.60
2019-01-27T08:50:28.725Z,1.50
2019-01-27T08:51:28.708Z,1.50
2019-01-27T08:52:28.689Z,1.40
2019-01-27T08:53:28.702Z,1.40
2019-01-27T08:54:28.684Z,1.30
2019-01-27T08:55:28.658Z,1.70
2019-01-27T08:56:28.656Z,1.50
2019-01-27T08:57:28.635Z,1.40
2019-01-27T08:58:28.625Z,1.70
2019-01-27T08:59:28.638Z,2.00
2019-01-27T09:00:28.612Z,1.60
2019-01-27T09:01:28.597Z,2.50
2019-01-27T09:02:28.604Z,2.90
2019-01-27T09:03:28.573Z,1.80
2019-01-27T09:04:28.573Z,1.60
2019-01-27T09:05:28.551Z,2.00
2019-01-27T09:06:28.548Z,1.60
2019-01-27T09:07:28.538Z,1.70
2019-01-27T09:08:28.526Z,1.40
2019-01-27T09:09:28.532Z,1.40
2019-01-27T09:10:28.540Z,1.30
2019-01-27T09:11:28.480Z,1.40
2019-01-27T09:12:28.482Z,1.30
2019-01-27T09:13:28.459Z,1.50
2019-01-27T09:14:28.485Z,1.70
2019-01-27T09:15:28.457Z,1.40
2019-01-27T09:16:28.421Z,1.10
2019-01-27T09:17:28.408Z,1.40
2019-01-27T09:18:28.408Z,1.40
2019-01-27T09:19:28.401Z,1.30
2019-01-27T09:20:28.403Z,1.30
2019-01-27T09:21:28.369Z,1.80
2019-01-27T09:22:28.359Z,1.20
2019-01-27T09:23:28.354Z,1.80
2019-01-27T09:24:28.334Z,1.40
2019-01-27T09:25:28.370Z,1.10
2019-01-27T09:26:28.311Z,1.30
2019-01-27T09:27:28.300Z,2.10
2019-01-27T09:28:28.322Z,1.20
2019-01-27T09:29:28.285Z,1.30
2019-01-27T09:30:28.306Z,1.30
2019-01-27T09:31:28.274Z,1.40
2019-01-27T09:32:28.247Z,1.30
2019-01-27T09:33:28.232Z,1.40
2019-01-27T09:34:28.219Z,1.20
2019-01-27T09:35:28.209Z,1.20
2019-01-27T09:36:28.219Z,1.30
2019-01-27T09:37:28.189Z,1.30
2019-01-27T09:38:28.172Z,1.20
2019-01-27T09:39:28.166Z,1.40
2019-01-27T09:40:28.165Z,1.40
2019-01-27T09:41:28.163Z,1.30
2019-01-27T09:42:28.136Z,1.40
2019-01-27T09:43:29.016Z,1.40
2019-01-27T09:44:28.123Z,1.60
2019-01-27T09:45:28.113Z,1.70
2019-01-27T09:46:28.113Z,1.30
2019-01-27T09:47:28.070Z,1.30
2019-01-27T09:48:28.069Z,1.60
2019-01-27T09:49:28.049Z,1.30
2019-01-27T09:50:28.061Z,1.20
2019-01-27T09:51:28.046Z,1.50
2019-01-27T09:52:28.028Z,1.40
2019-01-27T09:53:28.003Z,1.30
2019-01-27T09:54:28.018Z,1.80
2019-01-27T09:55:27.981Z,1.80
2019-01-27T09:56:28.019Z,1.60
2019-01-27T09:57:27.984Z,1.50
2019-01-27T09:58:27.958Z,2.00
2019-01-27T09:59:27.945Z,1.50
2019-01-27T10:00:27.941Z,1.70
2019-01-27T10:01:27.920Z,1.60
2019-01-27T10:02:34.640Z,1.50
2019-01-27T10:03:28.915Z,1.60
2019-01-27T10:04:27.878Z,1.70
2019-01-27T10:05:27.889Z,1.50
2019-01-27T10:06:27.877Z,1.40
2019-01-27T10:07:27.882Z,1.30
2019-01-27T10:08:27.843Z,1.40
2019-01-27T10:09:27.825Z,1.10
2019-01-27T10:10:27.866Z,1.40
2019-01-27T10:11:27.799Z,1.70
2019-01-27T10:12:27.818Z,1.50
2019-01-27T10:13:27.783Z,1.30
2019-01-27T10:14:27.772Z,1.40
2019-01-27T10:15:27.755Z,1.30
2019-01-27T10:16:27.804Z,1.40
2019-01-27T10:17:27.774Z,1.20
2019-01-27T10:18:27.738Z,1.40
2019-01-27T10:19:27.721Z,1.40
2019-01-27T10:20:27.713Z,1.30
2019-01-27T10:21:27.700Z,1.30
2019-01-27T10:22:27.719Z,1.60
2019-01-27T10:23:27.683Z,1.50
2019-01-27T10:24:27.661Z,1.30
2019-01-27T10:25:27.673Z,1.20
2019-01-27T10:26:27.636Z,1.40
2019-01-27T10:27:27.623Z,1.10
2019-01-27T10:28:27.678Z,1.00
2019-01-27T10:29:27.616Z,1.20
2019-01-27T10:30:27.608Z,1.20
2019-01-27T10:31:27.592Z,1.20
2019-01-27T10:32:27.585Z,1.20
2019-01-27T10:33:27.595Z,1.30
2019-01-27T10:34:27.556Z,1.60
2019-01-27T10:35:27.552Z,1.30
2019-01-27T10:36:27.525Z,1.10
2019-01-27T10:37:27.552Z,1.30
2019-01-27T10:38:27.513Z,1.30
2019-01-27T10:39:27.497Z,1.30
2019-01-27T10:40:27.505Z,2.10
2019-01-27T10:41:27.488Z,2.10
2019-01-27T10:42:27.457Z,5.20
2019-01-27T10:43:27.604Z,9.10
2019-01-27T10:44:27.459Z,1.90
2019-01-27T10:45:27.438Z,3.70
2019-01-27T10:46:27.440Z,25.40
2019-01-27T10:47:27.451Z,10.60
2019-01-27T10:48:27.417Z,5.30
2019-01-27T10:49:27.432Z,8.40
2019-01-27T10:50:27.383Z,2.90
2019-01-27T10:51:27.370Z,2.90
2019-01-27T10:52:27.351Z,1.30
2019-01-27T10:53:27.364Z,1.10
2019-01-27T10:54:27.351Z,1.10
2019-01-27T10:55:27.337Z,1.30
2019-01-27T10:56:27.316Z,2.00
2019-01-27T10:57:27.301Z,1.10
2019-01-27T10:58:27.303Z,1.30
2019-01-27T10:59:27.288Z,1.10
2019-01-27T11:00:27.258Z,1.40
2019-01-27T11:01:27.257Z,1.20
2019-01-27T11:02:27.586Z,1.20
2019-01-27T11:03:27.234Z,1.60
2019-01-27T11:04:27.284Z,1.30
2019-01-27T11:05:27.213Z,1.40
2019-01-27T11:06:27.198Z,1.50
2019-01-27T11:07:27.206Z,1.40
2019-01-27T11:08:27.168Z,1.80
2019-01-27T11:09:27.167Z,1.50
2019-01-27T11:10:27.200Z,1.30
2019-01-27T11:11:27.136Z,1.10
2019-01-27T11:12:27.127Z,1.30
2019-01-27T11:13:27.114Z,1.90
2019-01-27T11:14:27.108Z,1.20
2019-01-27T11:15:27.122Z,1.10
2019-01-27T11:16:27.088Z,1.20
2019-01-27T11:17:27.097Z,1.20
2019-01-27T11:18:27.071Z,1.30
2019-01-27T11:19:27.049Z,1.60
2019-01-27T11:20:27.054Z,1.40
2019-01-27T11:21:28.186Z,1.50
2019-01-27T11:22:27.016Z,1.60
2019-01-27T11:23:27.001Z,1.70
2019-01-27T11:24:26.999Z,1.60
2019-01-27T11:25:27.004Z,2.10
2019-01-27T11:26:26.968Z,2.30
2019-01-27T11:27:33.001Z,2.50
2019-01-27T11:28:27.967Z,2.40
2019-01-27T11:29:26.952Z,2.60
2019-01-27T11:30:26.961Z,2.20
2019-01-27T11:31:26.918Z,1.70
2019-01-27T11:32:26.906Z,1.90
2019-01-27T11:33:26.902Z,2.00
2019-01-27T11:34:26.892Z,2.60
2019-01-27T11:35:26.902Z,3.10
2019-01-27T11:36:26.878Z,2.30
2019-01-27T11:37:26.848Z,2.30
2019-01-27T11:38:26.839Z,2.50
2019-01-27T11:39:26.841Z,3.00
2019-01-27T11:40:26.824Z,1.80
2019-01-27T11:41:26.822Z,2.20
2019-01-27T11:42:26.793Z,1.50
2019-01-27T11:43:26.821Z,1.60
2019-01-27T11:44:26.775Z,1.30
2019-01-27T11:45:26.766Z,1.40
2019-01-27T11:46:26.765Z,1.30
2019-01-27T11:47:26.739Z,1.20
2019-01-27T11:48:26.746Z,1.00
2019-01-27T11:49:26.728Z,1.40
2019-01-27T11:50:26.707Z,1.70
2019-01-27T11:51:26.701Z,2.50
2019-01-27T11:52:26.728Z,13.00
2019-01-27T11:53:26.709Z,24.90
2019-01-27T11:54:26.668Z,11.40
2019-01-27T11:55:26.654Z,5.20
2019-01-27T11:56:26.647Z,2.80
2019-01-27T11:57:26.628Z,4.10
2019-01-27T11:58:26.615Z,2.10
2019-01-27T11:59:26.629Z,5.20
2019-01-27T12:00:26.603Z,4.30
2019-01-27T12:01:26.591Z,1.50
2019-01-27T12:02:26.580Z,1.50
2019-01-27T12:03:26.622Z,7.10
2019-01-27T12:04:26.596Z,1.10
2019-01-27T12:05:26.536Z,2.10
2019-01-27T12:06:26.536Z,3.30
2019-01-27T12:07:26.524Z,2.30
2019-01-27T12:08:28.007Z,0.90
2019-01-27T12:09:26.527Z,0.90
2019-01-27T12:10:26.488Z,1.40
2019-01-27T12:11:26.484Z,0.60
2019-01-27T12:12:26.493Z,0.80
2019-01-27T12:13:26.462Z,0.90
2019-01-27T12:14:26.469Z,10.50
2019-01-27T12:15:26.445Z,5.20
2019-01-27T12:16:26.423Z,8.90
2019-01-27T12:17:26.427Z,4.20
2019-01-27T12:18:26.401Z,1.50
2019-01-27T12:19:26.433Z,1.00
2019-01-27T12:20:26.371Z,14.30
2019-01-27T12:21:26.379Z,2.40
2019-01-27T12:22:26.355Z,1.10
2019-01-27T12:23:26.344Z,0.80
2019-01-27T12:24:26.371Z,1.10
2019-01-27T12:25:26.333Z,1.50
2019-01-27T12:26:26.315Z,1.50
2019-01-27T12:27:26.329Z,2.10
2019-01-27T12:28:26.298Z,1.10
2019-01-27T12:29:26.311Z,3.00
2019-01-27T12:30:26.268Z,1.60
2019-01-27T12:31:26.306Z,1.80
2019-01-27T12:32:26.247Z,1.30
2019-01-27T12:33:26.239Z,1.60
2019-01-27T12:34:26.236Z,7.10
2019-01-27T12:35:26.249Z,1.00
2019-01-27T12:36:26.201Z,1.00
2019-01-27T12:37:26.212Z,2.40
2019-01-27T12:38:26.192Z,1.10
2019-01-27T12:39:26.180Z,1.20
2019-01-27T12:40:26.206Z,1.20
2019-01-27T12:41:26.142Z,4.50
2019-01-27T12:42:26.153Z,1.80
2019-01-27T12:43:26.118Z,1.10
2019-01-27T12:44:26.224Z,1.10
2019-01-27T12:45:26.124Z,1.10
2019-01-27T12:46:26.096Z,1.30
2019-01-27T12:47:26.087Z,1.10
2019-01-27T12:48:26.063Z,1.10
2019-01-27T12:49:26.053Z,1.40
2019-01-27T12:50:26.094Z,2.20
2019-01-27T12:51:26.076Z,1.40
2019-01-27T12:52:26.017Z,1.70
2019-01-27T12:53:26.027Z,1.20
2019-01-27T12:54:25.997Z,1.30
2019-01-27T12:55:25.989Z,1.70
2019-01-27T12:56:26.032Z,1.60
2019-01-27T12:57:25.966Z,1.20
2019-01-27T12:58:25.961Z,1.40
2019-01-27T12:59:25.945Z,1.50
2019-01-27T13:00:26.040Z,1.40
2019-01-27T13:01:25.936Z,1.40
2019-01-27T13:02:25.927Z,1.20
2019-01-27T13:03:25.894Z,1.30
2019-01-27T13:04:25.894Z,1.80
2019-01-27T13:05:25.873Z,1.20
2019-01-27T13:06:25.878Z,1.40
2019-01-27T13:07:25.859Z,1.60
2019-01-27T13:08:26.035Z,1.30
2019-01-27T13:09:25.832Z,1.50
2019-01-27T13:10:25.834Z,1.50
2019-01-27T13:11:25.838Z,1.30
2019-01-27T13:12:25.794Z,1.10
2019-01-27T13:13:25.795Z,1.10
2019-01-27T13:14:25.779Z,1.20
2019-01-27T13:15:25.762Z,1.20
2019-01-27T13:16:25.776Z,1.40
2019-01-27T13:17:25.742Z,1.20
2019-01-27T13:18:25.757Z,1.20